Time;durP1;ratioP1;P1;durP2;ratioP2;P2;SDS_P1;SDS_P2;PMS_P1;PMS_P2;Temp;Humidity;BMP_temperature;BMP_pressure;BME280_temperature;BME280_humidity;BME280_pressure;Samples;Min_cycle;Max_cycle;Signal;HPM_P1;HPM_P2
2022/08/31 00:06:14;;;;;;;8.80;5.37;;;;;;;;;;4407443;32;20120;-66
2022/08/31 00:08:41;;;;;;;9.95;5.85;;;;;;;;;;4405961;32;20107;-66
2022/08/31 00:11:12;;;;;;;11.27;5.65;;;;;;;;;;4405567;32;20149;-67
2022/08/31 00:13:40;;;;;;;9.13;4.93;;;;;;;;;;4405925;32;20100;-67
2022/08/31 00:16:08;;;;;;;13.05;5.07;;;;;;;;;;4406912;32;20085;-67
2022/08/31 00:18:34;;;;;;;9.40;5.10;;;;;;;;;;4405578;32;20070;-67
2022/08/31 00:21:01;;;;;;;7.65;4.97;;;;;;;;;;4405564;32;20065;-68
2022/08/31 00:23:28;;;;;;;7.25;5.07;;;;;;;;;;4405368;32;20202;-67
2022/08/31 00:25:54;;;;;;;9.15;4.72;;;;;;;;;;4406660;32;20449;-67
2022/08/31 00:28:21;;;;;;;10.13;4.85;;;;;;;;;;4406401;32;20149;-66
2022/08/31 00:30:48;;;;;;;11.15;5.12;;;;;;;;;;4406765;32;20080;-67
2022/08/31 00:33:15;;;;;;;11.00;5.50;;;;;;;;;;4405214;32;20469;-68
2022/08/31 00:35:42;;;;;;;8.50;4.80;;;;;;;;;;4393136;32;20444;-67
2022/08/31 00:38:10;;;;;;;12.85;5.10;;;;;;;;;;4392825;32;20548;-68
2022/08/31 00:40:37;;;;;;;6.78;4.53;;;;;;;;;;4405645;32;20182;-67
2022/08/31 00:43:04;;;;;;;10.40;5.20;;;;;;;;;;4405249;32;20089;-67
2022/08/31 00:45:31;;;;;;;10.63;5.28;;;;;;;;;;4406601;32;20090;-68
2022/08/31 00:47:57;;;;;;;8.73;5.05;;;;;;;;;;4406505;32;20169;-68
2022/08/31 00:50:25;;;;;;;12.25;5.50;;;;;;;;;;4392574;32;20519;-68
2022/08/31 00:52:57;;;;;;;8.45;4.90;;;;;;;;;;4406699;32;20103;-67
2022/08/31 00:55:34;;;;;;;8.45;5.00;;;;;;;;;;4393043;32;20184;-67
2022/08/31 00:58:06;;;;;;;10.05;5.40;;;;;;;;;;4404973;32;20534;-67
2022/08/31 01:00:33;;;;;;;9.57;5.45;;;;;;;;;;4405168;32;20100;-68
2022/08/31 01:03:01;;;;;;;15.15;5.57;;;;;;;;;;4404612;32;20088;-67
2022/08/31 01:05:29;;;;;;;7.70;5.07;;;;;;;;;;4405251;32;20085;-67
2022/08/31 01:07:56;;;;;;;9.65;4.93;;;;;;;;;;4405103;32;20096;-67
2022/08/31 01:10:25;;;;;;;10.55;5.15;;;;;;;;;;4405236;32;20081;-67
2022/08/31 01:12:53;;;;;;;7.68;5.40;;;;;;;;;;4392357;32;20180;-68
2022/08/31 01:15:21;;;;;;;9.95;5.12;;;;;;;;;;4392384;32;20087;-67
2022/08/31 01:17:50;;;;;;;12.85;6.57;;;;;;;;;;4405095;32;20085;-67
2022/08/31 01:20:36;;;;;;;8.52;5.32;;;;;;;;;;4404837;32;20091;-67
2022/08/31 01:23:29;;;;;;;7.93;5.43;;;;;;;;;;4405130;32;20081;-68
2022/08/31 01:25:58;;;;;;;13.52;5.60;;;;;;;;;;4404911;32;20444;-67
2022/08/31 01:28:25;;;;;;;10.02;5.10;;;;;;;;;;4405041;32;20600;-67
2022/08/31 01:31:04;;;;;;;12.35;5.45;;;;;;;;;;4404845;32;20527;-67
2022/08/31 01:33:32;;;;;;;12.32;5.90;;;;;;;;;;4406231;32;20096;-68
2022/08/31 01:35:59;;;;;;;8.30;4.95;;;;;;;;;;4392126;32;20168;-67
2022/08/31 01:38:26;;;;;;;11.73;6.28;;;;;;;;;;4404738;32;20501;-67
2022/08/31 01:40:55;;;;;;;11.73;5.87;;;;;;;;;;4394545;32;20236;-67
2022/08/31 01:43:23;;;;;;;9.32;5.32;;;;;;;;;;4408018;32;20516;-67
2022/08/31 01:45:50;;;;;;;10.45;5.78;;;;;;;;;;4395574;32;20081;-68
2022/08/31 01:48:17;;;;;;;11.15;5.95;;;;;;;;;;4395459;32;20081;-67
2022/08/31 01:50:44;;;;;;;10.38;5.90;;;;;;;;;;4407834;32;20084;-67
2022/08/31 01:53:11;;;;;;;9.07;5.40;;;;;;;;;;4407618;32;20157;-67
2022/08/31 01:55:37;;;;;;;12.27;5.80;;;;;;;;;;4409003;32;20069;-67
2022/08/31 01:58:05;;;;;;;9.65;5.60;;;;;;;;;;4408986;32;20083;-67
2022/08/31 02:00:32;;;;;;;8.63;5.43;;;;;;;;;;4407644;32;20174;-68
2022/08/31 02:03:00;;;;;;;10.73;5.75;;;;;;;;;;4394842;32;20081;-68
2022/08/31 02:05:27;;;;;;;12.52;5.75;;;;;;;;;;4408862;32;20508;-67
2022/08/31 02:07:55;;;;;;;8.88;5.60;;;;;;;;;;4409006;32;20100;-66
2022/08/31 02:10:22;;;;;;;8.07;5.72;;;;;;;;;;4407347;32;20588;-67
2022/08/31 02:12:49;;;;;;;12.60;5.62;;;;;;;;;;4407317;32;20218;-67
2022/08/31 02:15:16;;;;;;;9.45;6.05;;;;;;;;;;4394748;32;20081;-69
2022/08/31 02:17:42;;;;;;;9.30;5.70;;;;;;;;;;4407201;32;20091;-67
2022/08/31 02:20:10;;;;;;;15.48;5.62;;;;;;;;;;4409057;32;20079;-67
2022/08/31 02:22:37;;;;;;;9.10;5.57;;;;;;;;;;4394961;32;20096;-67
2022/08/31 02:25:05;;;;;;;8.70;5.55;;;;;;;;;;4407254;32;20074;-66
2022/08/31 02:27:32;;;;;;;10.20;5.57;;;;;;;;;;4407070;32;20077;-67
2022/08/31 02:29:58;;;;;;;7.30;5.20;;;;;;;;;;4408460;32;20080;-68
2022/08/31 02:32:25;;;;;;;11.43;6.35;;;;;;;;;;4408493;32;20160;-67
2022/08/31 02:34:52;;;;;;;7.93;5.50;;;;;;;;;;4407002;32;20507;-67
2022/08/31 02:37:18;;;;;;;9.70;5.47;;;;;;;;;;4407131;32;20156;-67
2022/08/31 02:39:45;;;;;;;9.60;5.80;;;;;;;;;;4408323;32;20156;-67
2022/08/31 02:42:12;;;;;;;11.05;5.30;;;;;;;;;;4407053;32;20072;-68
2022/08/31 02:44:39;;;;;;;15.25;6.37;;;;;;;;;;4406953;32;20104;-68
2022/08/31 02:47:05;;;;;;;7.93;5.30;;;;;;;;;;4408291;32;20518;-67
2022/08/31 02:49:33;;;;;;;8.57;5.35;;;;;;;;;;4408299;32;20087;-66
2022/08/31 02:51:59;;;;;;;13.40;5.87;;;;;;;;;;4408065;32;20161;-67
2022/08/31 02:54:26;;;;;;;12.63;5.57;;;;;;;;;;4406800;32;20511;-67
2022/08/31 02:56:52;;;;;;;8.82;5.65;;;;;;;;;;4408333;32;20077;-68
2022/08/31 02:59:19;;;;;;;10.80;5.90;;;;;;;;;;4408325;32;20091;-67
2022/08/31 03:01:47;;;;;;;12.32;5.70;;;;;;;;;;4407970;32;20474;-67
2022/08/31 03:04:13;;;;;;;9.45;5.68;;;;;;;;;;4394206;32;20082;-66
2022/08/31 03:06:40;;;;;;;8.20;5.40;;;;;;;;;;4408084;32;20077;-67
2022/08/31 03:09:07;;;;;;;10.80;6.22;;;;;;;;;;4406458;32;20526;-67
2022/08/31 03:11:33;;;;;;;10.35;5.68;;;;;;;;;;4393937;32;20073;-67
2022/08/31 03:14:00;;;;;;;12.02;5.40;;;;;;;;;;4407853;32;20164;-67
2022/08/31 03:16:27;;;;;;;9.50;5.32;;;;;;;;;;4407915;32;20145;-67
2022/08/31 03:18:53;;;;;;;7.93;5.30;;;;;;;;;;4407863;32;20085;-67
2022/08/31 03:21:20;;;;;;;10.40;5.15;;;;;;;;;;4407811;32;20077;-68
2022/08/31 03:23:46;;;;;;;10.75;5.47;;;;;;;;;;4406517;32;20096;-67
2022/08/31 03:26:13;;;;;;;14.98;5.62;;;;;;;;;;4407705;32;20166;-67
2022/08/31 03:28:40;;;;;;;8.77;5.10;;;;;;;;;;4407689;32;20085;-68
2022/08/31 03:31:08;;;;;;;9.82;5.15;;;;;;;;;;4407779;32;20073;-67
2022/08/31 03:33:35;;;;;;;9.10;5.03;;;;;;;;;;4406259;32;20144;-67
2022/08/31 03:36:02;;;;;;;9.57;5.43;;;;;;;;;;4406071;32;20085;-66
2022/08/31 03:38:29;;;;;;;9.57;5.47;;;;;;;;;;4393687;32;20074;-67
2022/08/31 03:40:55;;;;;;;7.80;5.60;;;;;;;;;;4407508;32;20165;-68
2022/08/31 03:43:22;;;;;;;12.90;5.70;;;;;;;;;;4405904;32;20525;-66
2022/08/31 03:45:49;;;;;;;9.18;5.25;;;;;;;;;;4407374;32;20081;-67
2022/08/31 03:48:16;;;;;;;9.38;5.40;;;;;;;;;;4406057;32;20084;-67
2022/08/31 03:50:43;;;;;;;10.60;5.40;;;;;;;;;;4407453;32;20077;-67
2022/08/31 03:53:10;;;;;;;12.25;5.62;;;;;;;;;;4405991;32;20080;-66
2022/08/31 03:55:39;;;;;;;10.63;5.40;;;;;;;;;;4406058;32;20104;-68
2022/08/31 03:58:06;;;;;;;7.30;5.28;;;;;;;;;;4405715;32;20591;-68
2022/08/31 04:00:33;;;;;;;9.15;6.03;;;;;;;;;;4407690;32;20152;-67
2022/08/31 04:03:01;;;;;;;10.25;5.00;;;;;;;;;;4405593;32;20141;-67
2022/08/31 04:05:28;;;;;;;8.32;5.18;;;;;;;;;;4405676;32;20093;-67
2022/08/31 04:07:55;;;;;;;8.45;5.47;;;;;;;;;;4393267;32;20192;-68
2022/08/31 04:10:22;;;;;;;7.93;5.30;;;;;;;;;;4407631;32;20515;-67
2022/08/31 04:12:49;;;;;;;12.02;5.72;;;;;;;;;;4393047;32;20160;-67
2022/08/31 04:15:16;;;;;;;8.40;4.78;;;;;;;;;;4393618;32;20089;-66
2022/08/31 04:17:46;;;;;;;15.30;5.75;;;;;;;;;;4405729;32;20081;-67
2022/08/31 04:20:13;;;;;;;12.15;6.70;;;;;;;;;;4405732;32;20088;-67
2022/08/31 04:22:40;;;;;;;10.00;5.53;;;;;;;;;;4406813;32;20164;-67
2022/08/31 04:25:09;;;;;;;13.88;6.00;;;;;;;;;;4405275;32;20087;-67
2022/08/31 04:27:37;;;;;;;11.70;6.47;;;;;;;;;;4392839;32;20161;-67
2022/08/31 04:30:05;;;;;;;8.48;5.32;;;;;;;;;;4393356;32;20077;-67
2022/08/31 04:32:32;;;;;;;11.00;6.12;;;;;;;;;;4392672;32;20081;-66
2022/08/31 04:35:00;;;;;;;11.57;6.07;;;;;;;;;;4393136;32;20080;-67
2022/08/31 04:37:30;;;;;;;12.82;6.50;;;;;;;;;;4407023;32;20088;-67
2022/08/31 04:39:58;;;;;;;8.90;5.60;;;;;;;;;;4380553;32;20452;-66
2022/08/31 04:42:25;;;;;;;9.77;5.80;;;;;;;;;;4406800;32;20121;-67
2022/08/31 04:44:51;;;;;;;12.30;6.45;;;;;;;;;;4405419;32;20081;-67
2022/08/31 04:47:19;;;;;;;12.90;5.93;;;;;;;;;;4406703;32;20077;-67
2022/08/31 04:49:46;;;;;;;12.23;5.57;;;;;;;;;;4406488;32;20157;-67
2022/08/31 04:52:13;;;;;;;11.63;5.90;;;;;;;;;;4392461;32;20181;-67
2022/08/31 04:54:39;;;;;;;9.75;5.47;;;;;;;;;;4392342;32;20587;-68
2022/08/31 04:57:06;;;;;;;10.07;5.80;;;;;;;;;;4405086;32;20142;-69
2022/08/31 04:59:33;;;;;;;11.23;5.90;;;;;;;;;;4406405;32;20101;-68
2022/08/31 05:01:59;;;;;;;10.52;5.45;;;;;;;;;;4405950;32;20073;-70
2022/08/31 05:04:27;;;;;;;13.35;5.72;;;;;;;;;;4406838;32;20157;-69
2022/08/31 05:06:54;;;;;;;14.73;5.87;;;;;;;;;;4406452;32;20073;-69
2022/08/31 05:09:22;;;;;;;11.07;5.62;;;;;;;;;;4406427;32;20152;-68
2022/08/31 05:11:50;;;;;;;11.95;6.35;;;;;;;;;;4404887;32;20173;-69
2022/08/31 05:14:17;;;;;;;14.80;6.47;;;;;;;;;;4392515;32;20162;-68
2022/08/31 05:16:44;;;;;;;9.75;5.90;;;;;;;;;;4405129;32;20100;-69
2022/08/31 05:19:11;;;;;;;9.30;6.07;;;;;;;;;;4392280;32;20603;-69
2022/08/31 05:21:40;;;;;;;10.43;5.90;;;;;;;;;;4404833;32;20168;-70
2022/08/31 05:24:20;;;;;;;11.93;5.85;;;;;;;;;;4391996;32;20097;-67
2022/08/31 05:26:50;;;;;;;14.18;5.95;;;;;;;;;;4404985;32;20173;-69
2022/08/31 05:29:20;;;;;;;13.02;6.60;;;;;;;;;;4392255;32;20073;-71
2022/08/31 05:31:47;;;;;;;13.65;5.72;;;;;;;;;;4406055;32;20077;-69
2022/08/31 05:34:14;;;;;;;12.75;5.70;;;;;;;;;;4405002;32;20073;-65
2022/08/31 05:36:43;;;;;;;11.90;5.93;;;;;;;;;;4405001;32;20082;-67
2022/08/31 05:39:10;;;;;;;8.95;6.12;;;;;;;;;;4404495;32;20510;-67
2022/08/31 05:41:38;;;;;;;13.43;6.35;;;;;;;;;;4392158;32;20085;-67
2022/08/31 05:44:06;;;;;;;10.73;5.68;;;;;;;;;;4392562;32;20078;-68
2022/08/31 05:46:33;;;;;;;12.05;6.00;;;;;;;;;;4404929;32;20161;-68
2022/08/31 05:49:00;;;;;;;10.50;5.60;;;;;;;;;;4404715;32;20535;-67
2022/08/31 05:51:26;;;;;;;12.45;5.72;;;;;;;;;;4405958;32;20093;-67
2022/08/31 05:53:53;;;;;;;9.05;6.07;;;;;;;;;;4404357;32;20157;-68
2022/08/31 05:56:23;;;;;;;10.00;5.93;;;;;;;;;;4404718;32;20073;-67
2022/08/31 05:58:50;;;;;;;12.65;6.28;;;;;;;;;;4404761;32;20084;-67
2022/08/31 06:01:29;;;;;;;9.13;6.15;;;;;;;;;;4404423;32;20512;-68
2022/08/31 06:03:56;;;;;;;12.50;6.22;;;;;;;;;;4404469;32;20463;-68
2022/08/31 06:06:23;;;;;;;9.10;5.55;;;;;;;;;;4404566;32;20182;-69
2022/08/31 06:08:50;;;;;;;9.07;5.82;;;;;;;;;;4406081;32;20496;-66
2022/08/31 06:11:19;;;;;;;9.40;6.50;;;;;;;;;;4404673;32;20076;-68
2022/08/31 06:13:49;;;;;;;10.77;6.70;;;;;;;;;;4404575;32;20104;-67
2022/08/31 06:16:16;;;;;;;12.65;6.12;;;;;;;;;;4405111;32;20081;-67
2022/08/31 06:18:49;;;;;;;12.98;5.87;;;;;;;;;;4392287;32;20089;-68
2022/08/31 06:21:25;;;;;;;12.63;5.97;;;;;;;;;;4404501;32;20066;-68
2022/08/31 06:23:53;;;;;;;11.65;5.95;;;;;;;;;;4391818;32;20078;-68
2022/08/31 06:26:21;;;;;;;9.75;6.70;;;;;;;;;;4392832;32;20095;-68
2022/08/31 06:28:52;;;;;;;11.25;6.32;;;;;;;;;;4394766;32;20097;-68
2022/08/31 06:31:25;;;;;;;12.45;6.22;;;;;;;;;;4407016;32;20172;-68
2022/08/31 06:33:54;;;;;;;12.57;7.25;;;;;;;;;;4407013;32;20076;-69
2022/08/31 06:36:24;;;;;;;10.73;6.07;;;;;;;;;;4409228;32;20170;-68
2022/08/31 06:38:50;;;;;;;10.75;6.78;;;;;;;;;;4407805;32;20168;-69
2022/08/31 06:41:20;;;;;;;11.70;6.70;;;;;;;;;;4406901;32;20170;-68
2022/08/31 06:43:47;;;;;;;12.30;7.10;;;;;;;;;;4394149;32;20092;-68
2022/08/31 06:46:16;;;;;;;11.43;6.68;;;;;;;;;;4394632;32;20504;-67
2022/08/31 06:48:43;;;;;;;16.25;6.87;;;;;;;;;;4407326;32;20096;-67
2022/08/31 06:51:11;;;;;;;13.07;6.82;;;;;;;;;;4406499;32;20069;-68
2022/08/31 06:53:41;;;;;;;13.27;6.82;;;;;;;;;;4407163;32;20527;-68
2022/08/31 06:56:12;;;;;;;9.88;6.47;;;;;;;;;;4408400;32;20155;-69
2022/08/31 06:58:39;;;;;;;12.85;7.03;;;;;;;;;;4394265;32;20089;-67
2022/08/31 07:01:08;;;;;;;10.10;7.22;;;;;;;;;;4406582;32;20145;-67
2022/08/31 07:03:36;;;;;;;12.07;6.82;;;;;;;;;;4406542;32;20085;-68
2022/08/31 07:06:15;;;;;;;10.93;7.28;;;;;;;;;;4406459;32;20169;-68
2022/08/31 07:08:43;;;;;;;15.55;6.95;;;;;;;;;;4381721;32;20069;-68
2022/08/31 07:11:19;;;;;;;12.05;6.85;;;;;;;;;;4406558;32;20113;-69
2022/08/31 07:13:47;;;;;;;8.93;6.75;;;;;;;;;;4381527;32;20121;-68
2022/08/31 07:16:16;;;;;;;13.98;6.82;;;;;;;;;;4406410;32;20150;-67
2022/08/31 07:18:43;;;;;;;13.55;7.78;;;;;;;;;;4393786;32;20086;-68
2022/08/31 07:21:20;;;;;;;12.35;8.10;;;;;;;;;;4406389;32;20176;-67
2022/08/31 07:23:48;;;;;;;9.95;6.95;;;;;;;;;;4407710;32;20154;-68
2022/08/31 07:26:21;;;;;;;13.02;7.40;;;;;;;;;;4406079;32;20170;-68
2022/08/31 07:28:52;;;;;;;12.02;7.30;;;;;;;;;;4406155;32;20078;-68
2022/08/31 07:31:24;;;;;;;10.73;6.97;;;;;;;;;;4393991;32;20153;-67
2022/08/31 07:33:56;;;;;;;10.52;6.90;;;;;;;;;;4406093;32;20148;-69
2022/08/31 07:36:24;;;;;;;15.18;7.25;;;;;;;;;;4407359;32;20069;-69
2022/08/31 07:44:23;;;;;;;9.00;6.33;;;;;;;;;;4407288;32;20079;-68
2022/08/31 07:46:54;;;;;;;11.55;6.62;;;;;;;;;;4405980;32;20081;-68
2022/08/31 07:49:21;;;;;;;10.98;6.15;;;;;;;;;;4406263;32;20087;-67
2022/08/31 07:51:52;;;;;;;10.75;6.97;;;;;;;;;;4405740;32;20084;-68
2022/08/31 07:54:26;;;;;;;9.38;6.22;;;;;;;;;;4406074;32;20148;-68
2022/08/31 07:57:02;;;;;;;12.50;6.37;;;;;;;;;;4405663;32;20468;-67
2022/08/31 07:59:30;;;;;;;11.20;6.62;;;;;;;;;;4394082;32;20077;-68
2022/08/31 08:01:58;;;;;;;10.60;6.47;;;;;;;;;;4405445;32;20538;-67
2022/08/31 08:04:24;;;;;;;12.60;6.25;;;;;;;;;;4381180;32;20073;-68
2022/08/31 08:06:55;;;;;;;10.32;6.43;;;;;;;;;;4405652;32;20080;-67
2022/08/31 08:09:23;;;;;;;13.25;6.90;;;;;;;;;;4406960;32;20175;-67
2022/08/31 08:11:56;;;;;;;10.98;6.65;;;;;;;;;;4380390;32;20448;-67
2022/08/31 08:14:27;;;;;;;16.48;6.95;;;;;;;;;;4407119;32;20074;-67
2022/08/31 08:16:54;;;;;;;11.77;6.95;;;;;;;;;;4405838;32;20157;-68
2022/08/31 08:19:21;;;;;;;13.15;6.65;;;;;;;;;;4406862;32;20593;-68
2022/08/31 08:21:48;;;;;;;10.18;6.65;;;;;;;;;;4392715;32;20073;-68
2022/08/31 08:24:15;;;;;;;13.85;7.03;;;;;;;;;;4405498;32;20084;-69
2022/08/31 08:26:44;;;;;;;9.30;5.65;;;;;;;;;;4393338;32;20174;-71
2022/08/31 08:29:11;;;;;;;11.82;6.65;;;;;;;;;;4405381;32;20083;-68
2022/08/31 08:31:38;;;;;;;10.50;6.20;;;;;;;;;;4406627;32;20558;-68
2022/08/31 08:34:06;;;;;;;18.02;6.68;;;;;;;;;;4393898;32;20579;-67
2022/08/31 08:36:39;;;;;;;13.88;6.87;;;;;;;;;;4406495;32;20129;-69
2022/08/31 08:39:07;;;;;;;13.35;6.93;;;;;;;;;;4393364;32;20093;-67
2022/08/31 08:41:35;;;;;;;14.27;6.95;;;;;;;;;;4392469;32;20127;-67
2022/08/31 08:44:06;;;;;;;10.98;6.60;;;;;;;;;;4380419;32;20161;-68
2022/08/31 08:46:38;;;;;;;14.60;6.65;;;;;;;;;;4404960;32;20069;-67
2022/08/31 08:49:17;;;;;;;12.07;6.45;;;;;;;;;;4404284;32;20521;-67
2022/08/31 08:51:47;;;;;;;9.77;6.95;;;;;;;;;;4405173;32;20077;-68
2022/08/31 08:54:21;;;;;;;11.12;6.50;;;;;;;;;;4404770;32;20153;-67
2022/08/31 08:56:48;;;;;;;10.98;6.57;;;;;;;;;;4405486;32;20081;-68
2022/08/31 08:59:15;;;;;;;13.30;6.78;;;;;;;;;;4406162;32;20083;-68
2022/08/31 09:01:45;;;;;;;11.43;7.28;;;;;;;;;;4392464;32;20085;-68
2022/08/31 09:04:29;;;;;;;14.05;7.07;;;;;;;;;;4406362;32;20100;-67
2022/08/31 09:07:21;;;;;;;12.88;6.28;;;;;;;;;;4405218;32;20085;-68
2022/08/31 09:10:03;;;;;;;10.80;6.72;;;;;;;;;;4404838;32;20491;-69
2022/08/31 09:12:45;;;;;;;11.55;6.50;;;;;;;;;;4406265;32;20072;-68
2022/08/31 09:15:36;;;;;;;11.95;5.93;;;;;;;;;;4405142;32;20070;-69
2022/08/31 09:18:25;;;;;;;9.90;6.35;;;;;;;;;;4406340;32;20086;-69
2022/08/31 09:21:19;;;;;;;15.52;6.25;;;;;;;;;;4405057;32;20081;-69
2022/08/31 09:23:51;;;;;;;9.93;6.90;;;;;;;;;;4404805;32;20070;-68
2022/08/31 09:26:24;;;;;;;12.40;7.10;;;;;;;;;;4393940;32;20073;-69
2022/08/31 09:28:52;;;;;;;16.37;6.78;;;;;;;;;;4407398;32;20089;-70
2022/08/31 09:31:40;;;;;;;10.63;6.85;;;;;;;;;;4406050;32;20169;-67
2022/08/31 09:34:30;;;;;;;16.83;7.53;;;;;;;;;;4406061;32;20531;-68
2022/08/31 09:37:15;;;;;;;12.52;7.03;;;;;;;;;;4404776;32;20097;-67
2022/08/31 09:39:46;;;;;;;11.90;6.93;;;;;;;;;;4406498;32;20083;-67
2022/08/31 09:42:31;;;;;;;13.15;7.75;;;;;;;;;;4393332;32;20157;-68
2022/08/31 09:45:00;;;;;;;10.73;6.95;;;;;;;;;;4391956;32;20152;-68
2022/08/31 09:47:54;;;;;;;15.00;8.23;;;;;;;;;;4404737;32;20077;-67
2022/08/31 09:50:31;;;;;;;11.18;7.90;;;;;;;;;;4392294;32;20171;-68
2022/08/31 09:56:18;;;;;;;14.65;7.78;;;;;;;;;;4404791;32;20084;-69
2022/08/31 09:58:45;;;;;;;10.43;7.03;;;;;;;;;;4392005;32;20092;-68
2022/08/31 10:01:32;;;;;;;12.07;6.82;;;;;;;;;;4406051;32;20076;-67
2022/08/31 10:04:17;;;;;;;13.38;7.30;;;;;;;;;;4407304;32;20164;-67
2022/08/31 10:07:10;;;;;;;11.02;7.32;;;;;;;;;;4408683;32;20078;-68
2022/08/31 10:09:46;;;;;;;13.13;7.72;;;;;;;;;;4407596;32;20074;-68
2022/08/31 10:12:40;;;;;;;12.07;6.87;;;;;;;;;;4407167;32;20146;-69
2022/08/31 10:15:27;;;;;;;9.07;6.68;;;;;;;;;;4408394;32;20100;-68
2022/08/31 10:18:10;;;;;;;10.32;7.90;;;;;;;;;;4407298;32;20161;-69
2022/08/31 10:20:47;;;;;;;10.68;7.20;;;;;;;;;;4408466;32;20160;-69
2022/08/31 10:23:17;;;;;;;15.82;6.85;;;;;;;;;;4407406;32;20463;-68
2022/08/31 10:25:53;;;;;;;12.90;7.37;;;;;;;;;;4408610;32;20069;-68
2022/08/31 10:28:49;;;;;;;13.38;7.78;;;;;;;;;;4394620;32;20153;-68
2022/08/31 10:31:35;;;;;;;10.93;6.70;;;;;;;;;;4407027;32;20073;-68
2022/08/31 10:37:30;;;;;;;12.07;7.15;;;;;;;;;;4407101;32;20107;-66
2022/08/31 10:40:04;;;;;;;10.55;7.28;;;;;;;;;;4379627;32;20077;-67
2022/08/31 10:42:38;;;;;;;10.88;6.80;;;;;;;;;;4406908;32;20101;-68
2022/08/31 10:45:21;;;;;;;12.50;6.87;;;;;;;;;;4406833;32;20061;-68
2022/08/31 10:47:50;;;;;;;9.63;7.20;;;;;;;;;;4394734;32;20070;-68
2022/08/31 10:50:39;;;;;;;9.77;6.87;;;;;;;;;;4408110;32;20157;-68
2022/08/31 10:53:31;;;;;;;9.38;7.22;;;;;;;;;;4406860;32;20164;-68
2022/08/31 10:56:24;;;;;;;14.45;7.50;;;;;;;;;;4406637;32;20085;-69
2022/08/31 10:58:59;;;;;;;11.77;7.25;;;;;;;;;;4394597;32;20082;-68
2022/08/31 11:01:34;;;;;;;10.70;6.85;;;;;;;;;;4406417;32;20587;-67
2022/08/31 11:04:18;;;;;;;11.68;7.07;;;;;;;;;;4406321;32;20084;-68
2022/08/31 11:07:05;;;;;;;11.43;7.05;;;;;;;;;;4408490;32;20069;-68
2022/08/31 11:09:41;;;;;;;13.38;7.43;;;;;;;;;;4408034;32;20173;-67
2022/08/31 11:12:17;;;;;;;13.90;6.95;;;;;;;;;;4393572;32;20174;-68
2022/08/31 11:15:21;;;;;;;;;;;;;;;;;;4406639;32;20069;-68
2022/08/31 11:18:12;;;;;;;14.50;7.20;;;;;;;;;;4345153;33;20454;-67
2022/08/31 11:21:16;;;;;;;11.70;6.72;;;;;;;;;;4406184;32;20085;-68
2022/08/31 11:23:52;;;;;;;9.05;6.15;;;;;;;;;;4407676;32;20081;-67
2022/08/31 11:26:18;;;;;;;12.35;6.60;;;;;;;;;;4406426;32;20105;-68
2022/08/31 11:28:59;;;;;;;11.75;6.72;;;;;;;;;;4407644;32;20505;-68
2022/08/31 11:31:29;;;;;;;11.77;6.65;;;;;;;;;;4381162;32;20088;-69
2022/08/31 11:34:11;;;;;;;10.95;6.50;;;;;;;;;;4393766;32;20091;-68
2022/08/31 11:37:03;;;;;;;15.15;6.65;;;;;;;;;;4406187;32;20516;-68
2022/08/31 11:39:34;;;;;;;13.98;6.90;;;;;;;;;;4397706;32;20096;-68
2022/08/31 11:42:11;;;;;;;12.77;7.12;;;;;;;;;;4407410;32;20066;-68
2022/08/31 11:44:43;;;;;;;9.45;6.07;;;;;;;;;;4406088;32;20081;-68
2022/08/31 11:47:33;;;;;;;11.48;7.22;;;;;;;;;;4406043;32;20089;-68
2022/08/31 11:50:12;;;;;;;8.32;6.18;;;;;;;;;;4393911;32;20078;-68
2022/08/31 11:52:42;;;;;;;13.77;6.55;;;;;;;;;;4393345;32;20073;-68
2022/08/31 11:55:28;;;;;;;13.45;6.37;;;;;;;;;;4407293;32;20467;-67
2022/08/31 11:58:08;;;;;;;9.15;6.68;;;;;;;;;;4393115;32;20081;-68
2022/08/31 12:00:48;;;;;;;11.30;6.75;;;;;;;;;;4405860;32;20092;-67
2022/08/31 12:03:37;;;;;;;11.85;6.62;;;;;;;;;;4393054;32;20504;-68
2022/08/31 12:06:07;;;;;;;9.95;6.05;;;;;;;;;;4393168;32;20531;-68
2022/08/31 12:08:51;;;;;;;12.60;7.50;;;;;;;;;;4393382;32;20077;-67
2022/08/31 12:11:46;;;;;;;9.50;6.47;;;;;;;;;;4406200;32;20096;-67
2022/08/31 12:14:38;;;;;;;10.10;6.32;;;;;;;;;;4393236;32;20081;-68
2022/08/31 12:17:26;;;;;;;12.50;6.50;;;;;;;;;;4396908;32;20157;-68
2022/08/31 12:20:14;;;;;;;9.75;6.60;;;;;;;;;;4405720;32;20102;-68
2022/08/31 12:26:09;;;;;;;11.80;6.40;;;;;;;;;;4406157;32;20440;-69
2022/08/31 12:28:53;;;;;;;11.18;6.60;;;;;;;;;;4405462;32;20062;-69
2022/08/31 12:31:19;;;;;;;11.07;6.57;;;;;;;;;;4405465;32;20505;-68
2022/08/31 12:34:11;;;;;;;13.10;6.95;;;;;;;;;;4406688;32;20514;-68
2022/08/31 12:36:38;;;;;;;9.65;6.37;;;;;;;;;;4393027;32;20108;-68
2022/08/31 12:39:25;;;;;;;9.27;6.43;;;;;;;;;;4406607;32;20076;-68
2022/08/31 12:41:57;;;;;;;10.20;6.03;;;;;;;;;;4392711;32;20089;-69
2022/08/31 12:44:32;;;;;;;10.23;6.45;;;;;;;;;;4404971;32;20061;-69
2022/08/31 12:47:09;;;;;;;7.55;6.12;;;;;;;;;;4405108;32;20169;-68
2022/08/31 12:50:19;;;;;;;9.05;6.15;;;;;;;;;;4405180;32;20149;-69
2022/08/31 12:53:18;;;;;;;10.98;6.55;;;;;;;;;;4405009;32;20477;-68
2022/08/31 12:56:09;;;;;;;15.30;7.00;;;;;;;;;;4406382;32;20081;-68
2022/08/31 12:58:38;;;;;;;9.50;6.03;;;;;;;;;;4406578;32;20152;-68
2022/08/31 13:01:11;;;;;;;9.80;6.20;;;;;;;;;;4404807;32;20490;-69
2022/08/31 13:03:45;;;;;;;12.07;6.28;;;;;;;;;;4404695;32;20166;-68
2022/08/31 13:06:24;;;;;;;10.02;6.18;;;;;;;;;;4393059;32;20072;-68
2022/08/31 13:08:54;;;;;;;14.25;6.93;;;;;;;;;;4404863;32;20457;-67
2022/08/31 13:11:34;;;;;;;11.02;6.35;;;;;;;;;;4405068;32;20078;-69
2022/08/31 13:14:30;;;;;;;11.63;6.53;;;;;;;;;;4404899;32;20066;-68
2022/08/31 13:17:26;;;;;;;11.70;6.32;;;;;;;;;;4366081;32;20100;-68
2022/08/31 13:20:00;;;;;;;9.63;5.75;;;;;;;;;;4389107;32;20092;-67
2022/08/31 13:22:31;;;;;;;9.20;6.05;;;;;;;;;;4392435;32;20152;-68
2022/08/31 13:25:12;;;;;;;12.13;6.32;;;;;;;;;;4406145;32;20078;-69
2022/08/31 13:27:46;;;;;;;12.07;6.18;;;;;;;;;;4404755;32;20093;-69
2022/08/31 13:30:17;;;;;;;10.27;6.12;;;;;;;;;;4404605;32;20077;-68
2022/08/31 13:32:48;;;;;;;9.80;5.32;;;;;;;;;;4404760;32;20088;-68
2022/08/31 13:35:19;;;;;;;11.48;6.18;;;;;;;;;;4405323;32;20453;-68
2022/08/31 13:38:03;;;;;;;11.68;5.75;;;;;;;;;;4395186;32;20079;-67
2022/08/31 13:40:38;;;;;;;10.27;6.05;;;;;;;;;;4383289;32;20100;-69
2022/08/31 13:43:06;;;;;;;10.95;5.43;;;;;;;;;;4395223;32;20522;-68
2022/08/31 13:45:46;;;;;;;9.27;5.90;;;;;;;;;;4407733;32;20077;-68
2022/08/31 13:48:24;;;;;;;11.70;6.12;;;;;;;;;;4407822;32;20082;-68
2022/08/31 13:50:53;;;;;;;9.88;5.87;;;;;;;;;;4407686;32;20100;-68
2022/08/31 13:53:36;;;;;;;10.05;5.50;;;;;;;;;;4407456;32;20077;-68
2022/08/31 13:59:23;;;;;;;11.55;6.20;;;;;;;;;;4408976;32;20524;-67
2022/08/31 14:01:56;;;;;;;10.65;5.93;;;;;;;;;;4408995;32;20081;-68
2022/08/31 14:07:22;;;;;;;8.88;5.47;;;;;;;;;;4409265;32;20072;-68
2022/08/31 14:10:21;;;;;;;8.48;5.53;;;;;;;;;;4407314;32;20452;-68
2022/08/31 14:13:13;;;;;;;13.13;6.00;;;;;;;;;;4394624;32;20088;-67
2022/08/31 14:15:51;;;;;;;13.38;6.00;;;;;;;;;;4407350;32;20077;-68
2022/08/31 14:18:28;;;;;;;9.20;5.40;;;;;;;;;;4407578;32;20081;-68
2022/08/31 14:21:08;;;;;;;12.95;5.53;;;;;;;;;;4408645;32;20069;-67
2022/08/31 14:23:35;;;;;;;10.43;6.78;;;;;;;;;;4408429;32;20504;-67
2022/08/31 14:26:11;;;;;;;11.75;5.55;;;;;;;;;;4408637;32;20069;-67
2022/08/31 14:28:39;;;;;;;9.35;5.55;;;;;;;;;;4394616;32;20073;-68
2022/08/31 14:31:37;;;;;;;13.52;6.30;;;;;;;;;;4395270;32;20070;-67
2022/08/31 14:34:20;;;;;;;11.52;6.43;;;;;;;;;;4408661;32;20076;-68
2022/08/31 14:37:07;;;;;;;9.95;5.28;;;;;;;;;;4406951;32;20081;-68
2022/08/31 14:39:44;;;;;;;15.25;6.18;;;;;;;;;;4395152;32;20532;-68
2022/08/31 14:42:17;;;;;;;13.30;5.55;;;;;;;;;;4394514;32;20153;-68
2022/08/31 14:44:58;;;;;;;7.95;5.43;;;;;;;;;;4408639;32;20180;-67
2022/08/31 14:47:27;;;;;;;10.73;5.47;;;;;;;;;;4407830;32;20089;-68
2022/08/31 14:50:04;;;;;;;9.35;5.97;;;;;;;;;;4408562;32;20076;-67
2022/08/31 14:52:35;;;;;;;12.98;5.62;;;;;;;;;;4406847;32;20154;-68
2022/08/31 14:55:04;;;;;;;12.55;5.68;;;;;;;;;;4406895;32;20096;-67
2022/08/31 14:57:32;;;;;;;12.10;6.00;;;;;;;;;;4406719;32;20082;-67
2022/08/31 15:00:01;;;;;;;11.93;5.60;;;;;;;;;;4408078;32;20504;-68
2022/08/31 15:02:31;;;;;;;14.63;5.82;;;;;;;;;;4406573;32;20104;-67
2022/08/31 15:05:09;;;;;;;13.90;6.10;;;;;;;;;;4394482;32;20484;-68
2022/08/31 15:07:38;;;;;;;13.32;5.95;;;;;;;;;;4406984;32;20088;-68
2022/08/31 15:10:06;;;;;;;7.57;5.78;;;;;;;;;;4407242;32;20075;-68
2022/08/31 15:12:34;;;;;;;10.02;5.62;;;;;;;;;;4406467;32;20119;-68
2022/08/31 15:15:00;;;;;;;9.75;5.55;;;;;;;;;;4406605;32;20085;-68
2022/08/31 15:17:29;;;;;;;15.80;5.95;;;;;;;;;;4406596;32;20088;-68
2022/08/31 15:19:56;;;;;;;11.60;6.45;;;;;;;;;;4406695;32;20096;-68
2022/08/31 15:22:25;;;;;;;12.05;6.00;;;;;;;;;;4406515;32;20498;-67
2022/08/31 15:24:53;;;;;;;11.63;6.20;;;;;;;;;;4406105;32;20073;-68
2022/08/31 15:27:21;;;;;;;11.15;5.75;;;;;;;;;;4393924;32;20527;-67
2022/08/31 15:29:49;;;;;;;11.82;5.95;;;;;;;;;;4406318;32;20169;-68
2022/08/31 15:32:17;;;;;;;9.30;5.35;;;;;;;;;;4393544;32;20548;-68